createdAt,value
2023-04-07T00:01:18.994Z,9.73
2023-04-07T00:03:45.972Z,10.57
2023-04-07T00:06:12.818Z,11.00
2023-04-07T00:08:39.622Z,8.87
2023-04-07T00:11:06.277Z,8.30
2023-04-07T00:13:32.848Z,9.37
2023-04-07T00:15:59.511Z,11.63
2023-04-07T00:18:26.189Z,9.33
2023-04-07T00:20:52.811Z,9.30
2023-04-07T00:23:20.007Z,9.17
2023-04-07T00:25:48.362Z,9.37
2023-04-07T00:28:14.932Z,9.03
2023-04-07T00:30:41.484Z,8.83
2023-04-07T00:33:09.762Z,10.07
2023-04-07T00:35:36.652Z,9.73
2023-04-07T00:38:03.559Z,10.23
2023-04-07T00:40:30.474Z,11.10
2023-04-07T00:42:57.260Z,10.47
2023-04-07T00:45:23.908Z,12.13
2023-04-07T00:47:50.889Z,10.67
2023-04-07T00:50:18.749Z,11.37
2023-04-07T00:52:45.793Z,13.17
2023-04-07T00:55:12.412Z,12.03
2023-04-07T00:57:39.058Z,11.47
2023-04-07T01:00:06.926Z,9.67
2023-04-07T01:03:00.667Z,9.30
2023-04-07T01:05:38.916Z,11.87
2023-04-07T01:08:09.759Z,8.70
2023-04-07T01:10:44.577Z,10.53
2023-04-07T01:13:29.438Z,9.10
2023-04-07T01:15:58.678Z,12.37
2023-04-07T01:18:29.976Z,10.10
2023-04-07T01:21:02.824Z,9.97
2023-04-07T01:23:52.580Z,9.00
2023-04-07T01:26:26.818Z,9.30
2023-04-07T01:29:25.339Z,8.87
2023-04-07T01:31:58.497Z,8.77
2023-04-07T01:34:27.602Z,9.57
2023-04-07T01:36:56.202Z,9.60
2023-04-07T01:39:23.611Z,11.97
2023-04-07T01:41:53.095Z,10.63
2023-04-07T01:44:20.912Z,11.50
2023-04-07T01:46:51.023Z,9.83
2023-04-07T01:49:18.572Z,9.60
2023-04-07T01:51:50.326Z,12.43
2023-04-07T01:54:18.125Z,10.23
2023-04-07T01:56:45.474Z,9.83
2023-04-07T01:59:12.189Z,8.57
2023-04-07T02:01:39.308Z,11.77
2023-04-07T02:04:11.893Z,11.67
2023-04-07T02:06:45.091Z,10.23
2023-04-07T02:09:13.840Z,15.23
2023-04-07T02:11:41.136Z,9.57
2023-04-07T02:14:08.631Z,9.30
2023-04-07T02:16:35.765Z,11.67
2023-04-07T02:19:03.672Z,11.07
2023-04-07T02:21:31.004Z,11.33
2023-04-07T02:24:01.410Z,11.03
2023-04-07T02:26:27.965Z,8.30
2023-04-07T02:28:54.576Z,9.33
2023-04-07T02:31:21.241Z,12.07
2023-04-07T02:33:47.857Z,11.63
2023-04-07T02:36:14.452Z,9.50
2023-04-07T02:38:41.056Z,10.10
2023-04-07T02:41:07.719Z,12.53
2023-04-07T02:43:34.333Z,10.80
2023-04-07T02:46:00.974Z,12.13
2023-04-07T02:48:27.590Z,11.53
2023-04-07T02:50:54.183Z,10.73
2023-04-07T02:53:20.946Z,11.27
2023-04-07T02:55:47.582Z,12.47
2023-04-07T02:58:14.181Z,11.93
2023-04-07T03:00:40.777Z,12.67
2023-04-07T03:03:07.740Z,12.37
2023-04-07T03:05:34.425Z,14.30
2023-04-07T03:08:01.073Z,11.90
2023-04-07T03:10:27.632Z,13.63
2023-04-07T03:12:54.441Z,12.97
2023-04-07T03:15:21.562Z,13.90
2023-04-07T03:17:48.216Z,13.37
2023-04-07T03:20:14.838Z,12.97
2023-04-07T03:22:41.791Z,13.97
2023-04-07T03:25:08.807Z,12.83
2023-04-07T03:27:35.463Z,12.40
2023-04-07T03:30:02.682Z,10.90
2023-04-07T03:32:29.333Z,12.30
2023-04-07T03:34:56.507Z,13.33
2023-04-07T03:37:23.095Z,13.80
2023-04-07T03:39:50.924Z,12.90
2023-04-07T03:42:18.724Z,13.30
2023-04-07T03:44:45.263Z,13.43
2023-04-07T03:47:11.860Z,12.73
2023-04-07T03:49:38.610Z,14.33
2023-04-07T03:52:05.542Z,12.23
2023-04-07T03:54:32.185Z,11.83
2023-04-07T03:56:58.834Z,15.30
2023-04-07T03:59:25.391Z,12.50
2023-04-07T04:01:52.468Z,13.40
2023-04-07T04:04:19.403Z,12.73
2023-04-07T04:06:46.050Z,9.90
2023-04-07T04:09:12.695Z,10.40
2023-04-07T04:11:39.340Z,10.87
2023-04-07T04:14:06.621Z,10.60
2023-04-07T04:16:35.499Z,10.37
2023-04-07T04:19:02.336Z,10.30
2023-04-07T04:21:28.962Z,12.03
2023-04-07T04:23:55.713Z,10.47
2023-04-07T04:26:26.016Z,8.70
2023-04-07T04:28:55.525Z,13.40
2023-04-07T04:31:22.261Z,10.77
2023-04-07T04:33:48.910Z,10.30
2023-04-07T04:36:15.811Z,12.27
2023-04-07T04:38:42.410Z,13.00
2023-04-07T04:41:09.074Z,15.93
2023-04-07T04:43:35.643Z,12.97
2023-04-07T04:46:02.249Z,11.47
2023-04-07T04:48:28.849Z,11.00
2023-04-07T04:50:55.450Z,14.07
2023-04-07T04:53:22.270Z,12.37
2023-04-07T04:55:52.215Z,11.87
2023-04-07T04:58:21.231Z,13.80
2023-04-07T05:00:47.850Z,12.30
2023-04-07T05:03:14.749Z,11.70
2023-04-07T05:05:41.673Z,12.33
2023-04-07T05:08:11.018Z,16.87
2023-04-07T05:10:41.533Z,11.63
2023-04-07T05:13:08.161Z,13.73
2023-04-07T05:15:34.728Z,13.20
2023-04-07T05:18:01.350Z,12.33
2023-04-07T05:20:28.026Z,11.50
2023-04-07T05:22:54.671Z,14.70
2023-04-07T05:25:21.333Z,11.57
2023-04-07T05:27:47.926Z,13.07
2023-04-07T05:30:15.004Z,10.47
2023-04-07T05:32:41.657Z,10.40
2023-04-07T05:35:08.790Z,11.30
2023-04-07T05:37:35.410Z,12.87
2023-04-07T05:40:02.063Z,13.50
2023-04-07T05:42:28.663Z,10.63
2023-04-07T05:44:56.323Z,11.57
2023-04-07T05:47:22.869Z,11.70
2023-04-07T05:49:49.511Z,16.20
2023-04-07T05:52:16.144Z,14.23
2023-04-07T05:54:42.766Z,17.63
2023-04-07T05:57:09.610Z,12.77
2023-04-07T05:59:36.784Z,14.63
2023-04-07T06:02:04.249Z,14.43
2023-04-07T06:04:31.047Z,10.97
2023-04-07T06:06:57.674Z,14.33
2023-04-07T06:09:24.622Z,11.07
2023-04-07T06:11:51.220Z,16.00
2023-04-07T06:14:17.973Z,13.67
2023-04-07T06:16:44.751Z,15.37
2023-04-07T06:19:11.372Z,14.30
2023-04-07T06:21:38.022Z,12.53
2023-04-07T06:24:04.721Z,13.50
2023-04-07T06:26:31.912Z,9.13
2023-04-07T06:28:59.147Z,11.97
2023-04-07T06:31:26.283Z,11.10
2023-04-07T06:33:53.302Z,10.87
2023-04-07T06:36:21.855Z,11.27
2023-04-07T06:38:48.473Z,14.40
2023-04-07T06:41:17.165Z,11.73
2023-04-07T06:43:52.892Z,9.67
2023-04-07T06:46:19.785Z,12.67
2023-04-07T06:48:46.805Z,10.40
2023-04-07T06:51:13.469Z,8.30
2023-04-07T06:53:41.564Z,12.87
2023-04-07T06:56:12.009Z,11.67
2023-04-07T06:58:39.042Z,11.40
2023-04-07T07:01:06.393Z,12.57
2023-04-07T07:03:33.547Z,9.67
2023-04-07T07:06:00.871Z,11.70
2023-04-07T07:08:28.371Z,14.07
2023-04-07T07:10:55.360Z,11.63
2023-04-07T07:13:24.562Z,10.63
2023-04-07T07:15:51.666Z,11.43
2023-04-07T07:18:18.954Z,10.80
2023-04-07T07:20:46.029Z,12.53
2023-04-07T07:23:12.914Z,10.93
2023-04-07T07:25:39.629Z,9.73
2023-04-07T07:28:06.266Z,9.83
2023-04-07T07:30:32.942Z,10.17
2023-04-07T07:32:59.812Z,9.90
2023-04-07T07:35:26.513Z,12.13
2023-04-07T07:37:53.089Z,10.60
2023-04-07T07:40:19.676Z,12.30
2023-04-07T07:42:47.261Z,11.73
2023-04-07T07:45:14.105Z,10.33
2023-04-07T07:47:42.100Z,11.53
2023-04-07T07:50:08.977Z,7.90
2023-04-07T07:52:35.632Z,11.07
2023-04-07T07:55:02.320Z,11.10
2023-04-07T07:57:30.921Z,11.53
2023-04-07T07:59:57.573Z,12.13
2023-04-07T08:02:29.713Z,13.13
2023-04-07T08:04:57.523Z,11.50
2023-04-07T08:07:24.216Z,12.33
2023-04-07T08:09:50.943Z,10.80
2023-04-07T08:12:17.632Z,9.77
2023-04-07T08:14:44.686Z,9.83
2023-04-07T08:17:12.549Z,9.50
2023-04-07T08:19:39.235Z,12.07
2023-04-07T08:22:05.911Z,14.67
2023-04-07T08:24:35.775Z,11.83
2023-04-07T08:27:02.407Z,9.43
2023-04-07T08:29:30.560Z,9.93
2023-04-07T08:31:57.840Z,11.07
2023-04-07T08:34:24.467Z,11.43
2023-04-07T08:36:51.126Z,10.07
2023-04-07T08:39:18.028Z,9.83
2023-04-07T08:41:45.360Z,9.00
2023-04-07T08:44:13.387Z,8.83
2023-04-07T08:46:40.548Z,10.17
2023-04-07T08:49:13.819Z,9.63
2023-04-07T08:51:50.714Z,10.47
2023-04-07T08:54:22.620Z,10.10
2023-04-07T08:56:49.324Z,11.50
2023-04-07T08:59:18.778Z,9.70
2023-04-07T09:01:46.711Z,16.80
2023-04-07T09:04:13.644Z,8.93
2023-04-07T09:06:40.443Z,9.83
2023-04-07T09:09:07.084Z,8.60
2023-04-07T09:11:37.279Z,12.80
2023-04-07T09:14:03.956Z,11.13
2023-04-07T09:16:33.427Z,12.20
2023-04-07T09:19:00.041Z,10.07
2023-04-07T09:21:27.428Z,9.67
2023-04-07T09:23:54.198Z,10.87
2023-04-07T09:26:28.425Z,10.70
2023-04-07T09:28:58.082Z,12.10
2023-04-07T09:31:44.349Z,14.27
2023-04-07T09:34:31.897Z,8.63
2023-04-07T09:36:58.874Z,11.50
2023-04-07T09:39:26.404Z,11.23
2023-04-07T09:41:53.142Z,11.17
2023-04-07T09:44:20.964Z,11.00
2023-04-07T09:46:55.632Z,10.40
2023-04-07T09:49:26.209Z,9.13
2023-04-07T09:51:57.580Z,9.63
2023-04-07T09:54:36.194Z,10.87
2023-04-07T09:57:07.542Z,8.73
2023-04-07T09:59:36.326Z,10.60
2023-04-07T10:02:03.673Z,13.90
2023-04-07T10:04:31.975Z,11.03
2023-04-07T10:07:00.023Z,11.80
2023-04-07T10:09:28.114Z,8.63
2023-04-07T10:11:56.873Z,10.37
2023-04-07T10:14:27.103Z,8.27
2023-04-07T10:16:54.670Z,8.87
2023-04-07T10:19:21.501Z,9.37
2023-04-07T10:21:52.104Z,12.27
2023-04-07T10:24:43.405Z,12.57
2023-04-07T10:27:13.790Z,13.17
2023-04-07T10:29:45.284Z,8.90
2023-04-07T10:32:11.990Z,8.10
2023-04-07T10:34:50.822Z,11.30
2023-04-07T10:37:21.278Z,12.00
2023-04-07T10:40:19.089Z,10.53
2023-04-07T10:42:49.386Z,10.00
2023-04-07T10:45:16.251Z,8.63
2023-04-07T10:47:58.124Z,9.17
2023-04-07T10:50:25.882Z,9.77
2023-04-07T10:53:13.581Z,10.43
2023-04-07T10:55:44.867Z,11.23
2023-04-07T10:58:19.364Z,9.60
2023-04-07T11:01:01.578Z,8.43
2023-04-07T11:03:29.883Z,9.17
2023-04-07T11:06:10.607Z,8.93
2023-04-07T11:08:38.012Z,10.40
2023-04-07T11:11:09.293Z,8.47
2023-04-07T11:13:48.972Z,7.93
2023-04-07T11:16:18.405Z,9.57
2023-04-07T11:18:46.461Z,7.80
2023-04-07T11:21:18.226Z,9.20
2023-04-07T11:23:46.804Z,9.50
2023-04-07T11:26:14.940Z,8.37
2023-04-07T11:28:54.328Z,7.70
2023-04-07T11:31:31.262Z,10.67
2023-04-07T11:33:59.402Z,8.73
2023-04-07T11:36:39.095Z,8.43
2023-04-07T11:39:05.955Z,10.17
2023-04-07T11:41:33.675Z,8.30
2023-04-07T11:44:11.010Z,8.03
2023-04-07T11:46:53.309Z,10.27
2023-04-07T11:49:19.923Z,10.57
2023-04-07T11:51:47.181Z,9.40
2023-04-07T11:54:13.936Z,10.17
2023-04-07T11:56:47.547Z,10.87
2023-04-07T11:59:25.057Z,9.63
2023-04-07T12:01:55.259Z,8.13
2023-04-07T12:04:23.848Z,10.47
2023-04-07T12:06:50.973Z,10.50
2023-04-07T12:09:36.201Z,9.97
2023-04-07T12:12:04.077Z,11.17
2023-04-07T12:14:30.695Z,9.17
2023-04-07T12:16:58.424Z,12.17
2023-04-07T12:19:29.361Z,27.33
2023-04-07T12:21:56.901Z,22.30
2023-04-07T12:24:24.001Z,9.00
2023-04-07T12:26:50.841Z,10.80
2023-04-07T12:29:20.045Z,11.93
2023-04-07T12:31:48.091Z,17.60
2023-04-07T12:34:16.415Z,17.57
2023-04-07T12:36:43.735Z,11.03
2023-04-07T12:39:10.384Z,11.90
2023-04-07T12:41:38.725Z,11.40
2023-04-07T12:44:05.976Z,15.23
2023-04-07T12:46:32.814Z,9.73
2023-04-07T12:48:59.527Z,11.63
2023-04-07T12:51:26.388Z,9.33
2023-04-07T12:53:54.269Z,14.73
2023-04-07T12:56:22.540Z,12.47
2023-04-07T12:58:49.191Z,10.20
2023-04-07T13:01:16.728Z,14.47
2023-04-07T13:03:43.888Z,11.53
2023-04-07T13:06:11.012Z,10.07
2023-04-07T13:08:38.376Z,9.90
2023-04-07T13:11:05.457Z,10.67
2023-04-07T13:13:32.087Z,13.17
2023-04-07T13:15:58.938Z,9.93
2023-04-07T13:18:25.492Z,11.73
2023-04-07T13:21:10.740Z,9.40
2023-04-07T13:23:53.366Z,11.27
2023-04-07T13:26:19.981Z,10.40
2023-04-07T13:28:47.928Z,10.97
2023-04-07T13:31:16.349Z,10.63
2023-04-07T13:33:43.271Z,10.23
2023-04-07T13:36:10.440Z,10.10
2023-04-07T13:38:37.070Z,13.33
2023-04-07T13:41:04.182Z,13.20
2023-04-07T13:43:30.774Z,9.60
2023-04-07T13:45:57.429Z,10.53
2023-04-07T13:48:24.036Z,11.87
2023-04-07T13:50:50.921Z,9.73
2023-04-07T13:53:19.144Z,11.27
2023-04-07T13:55:46.130Z,9.50
2023-04-07T13:58:13.077Z,8.60
2023-04-07T14:00:40.441Z,8.20
2023-04-07T14:03:08.387Z,8.83
2023-04-07T14:05:36.089Z,9.50
2023-04-07T14:08:02.860Z,9.43
2023-04-07T14:10:29.506Z,14.90
2023-04-07T14:12:56.369Z,10.10
2023-04-07T14:15:23.111Z,11.33
2023-04-07T14:17:49.738Z,10.70
2023-04-07T14:20:16.447Z,16.97
2023-04-07T14:22:43.029Z,13.33
2023-04-07T14:25:11.288Z,9.57
2023-04-07T14:27:38.004Z,9.33
2023-04-07T14:30:05.181Z,34.73
2023-04-07T14:32:33.440Z,18.10
2023-04-07T14:35:00.240Z,10.60
2023-04-07T14:37:28.661Z,12.10
2023-04-07T14:40:02.094Z,9.23
2023-04-07T14:42:30.271Z,9.90
2023-04-07T14:44:56.892Z,10.17
2023-04-07T14:47:23.644Z,11.23
2023-04-07T14:49:53.221Z,9.93
2023-04-07T14:52:21.819Z,10.63
2023-04-07T14:54:48.798Z,13.33
2023-04-07T14:57:16.625Z,12.93
2023-04-07T14:59:43.608Z,11.97
2023-04-07T15:02:10.662Z,11.60
2023-04-07T15:04:37.523Z,10.93
2023-04-07T15:07:05.013Z,14.57
2023-04-07T15:09:31.747Z,11.93
2023-04-07T15:12:00.412Z,12.40
2023-04-07T15:14:27.147Z,11.73
2023-04-07T15:16:53.899Z,12.60
2023-04-07T15:19:20.543Z,13.03
2023-04-07T15:21:47.125Z,14.07
2023-04-07T15:24:15.915Z,11.67
2023-04-07T15:26:42.990Z,11.60
2023-04-07T15:29:09.583Z,14.13
2023-04-07T15:31:36.281Z,12.25
2023-04-07T15:34:02.984Z,13.87
2023-04-07T15:36:29.561Z,12.50
2023-04-07T15:38:56.174Z,13.93
2023-04-07T15:41:23.392Z,16.53
2023-04-07T15:43:50.483Z,19.57
2023-04-07T15:46:17.138Z,24.27
2023-04-07T15:48:43.757Z,15.67
2023-04-07T15:51:10.341Z,15.90
2023-04-07T15:53:36.912Z,15.50
2023-04-07T15:56:03.598Z,14.63
2023-04-07T15:58:31.527Z,15.83
2023-04-07T16:00:58.957Z,13.03
2023-04-07T16:03:25.992Z,16.37
2023-04-07T16:05:52.751Z,17.50
2023-04-07T16:08:19.660Z,15.33
2023-04-07T16:10:46.427Z,18.27
2023-04-07T16:13:14.219Z,16.53
2023-04-07T16:15:41.798Z,18.67
2023-04-07T16:18:10.135Z,14.73
2023-04-07T16:20:36.734Z,14.87
2023-04-07T16:23:03.442Z,15.13
2023-04-07T16:25:30.945Z,15.27
2023-04-07T16:27:57.579Z,16.13
2023-04-07T16:30:25.369Z,15.30
2023-04-07T16:32:52.271Z,21.80
2023-04-07T16:35:19.190Z,15.67
2023-04-07T16:37:46.693Z,17.33
2023-04-07T16:40:13.672Z,15.67
2023-04-07T16:42:40.961Z,15.87
2023-04-07T16:45:08.269Z,15.37
2023-04-07T16:47:35.692Z,16.40
2023-04-07T16:50:04.025Z,15.87
2023-04-07T16:52:31.028Z,16.93
2023-04-07T16:54:57.962Z,18.33
2023-04-07T16:57:24.615Z,17.10
2023-04-07T16:59:51.300Z,19.60
2023-04-07T17:02:18.183Z,18.77
2023-04-07T17:04:44.957Z,16.00
2023-04-07T17:07:11.930Z,17.87
2023-04-07T17:09:39.055Z,19.80
2023-04-07T17:12:06.330Z,21.67
2023-04-07T17:14:33.280Z,20.33
2023-04-07T17:16:59.943Z,22.60
2023-04-07T17:19:27.279Z,19.77
2023-04-07T17:21:53.876Z,19.70
2023-04-07T17:24:20.563Z,18.07
2023-04-07T17:26:48.013Z,19.93
2023-04-07T17:29:15.657Z,18.70
2023-04-07T17:31:42.268Z,19.77
2023-04-07T17:34:09.005Z,21.57
2023-04-07T17:36:37.548Z,20.77
2023-04-07T17:39:05.360Z,20.40
2023-04-07T17:41:35.654Z,19.13
2023-04-07T17:44:02.480Z,20.20
2023-04-07T17:46:29.465Z,19.70
2023-04-07T17:48:59.110Z,20.37
2023-04-07T17:51:26.637Z,20.17
2023-04-07T17:53:53.994Z,28.53
2023-04-07T17:56:21.360Z,22.93
2023-04-07T17:58:48.339Z,37.87
2023-04-07T18:01:15.750Z,22.57
2023-04-07T18:03:42.830Z,22.37
2023-04-07T18:06:09.748Z,19.83
2023-04-07T18:08:36.669Z,19.00
2023-04-07T18:11:05.902Z,21.77
2023-04-07T18:13:34.033Z,20.23
2023-04-07T18:16:00.843Z,17.93
2023-04-07T18:18:27.640Z,22.97
2023-04-07T18:20:54.247Z,23.13
2023-04-07T18:23:20.821Z,24.30
2023-04-07T18:25:47.623Z,26.43
2023-04-07T18:28:14.226Z,22.50
2023-04-07T18:30:40.852Z,21.87
2023-04-07T18:33:07.526Z,21.13
2023-04-07T18:35:34.380Z,21.13
2023-04-07T18:38:01.056Z,22.73
2023-04-07T18:40:30.019Z,22.83
2023-04-07T18:42:56.705Z,21.77
2023-04-07T18:45:23.347Z,27.00
2023-04-07T18:47:50.821Z,23.37
2023-04-07T18:50:18.229Z,22.60
2023-04-07T18:52:44.803Z,29.23
2023-04-07T18:55:11.391Z,26.13
2023-04-07T18:57:39.574Z,20.87
2023-04-07T19:00:06.999Z,19.97
2023-04-07T19:02:33.717Z,20.73
2023-04-07T19:05:01.508Z,24.50
2023-04-07T19:07:28.190Z,21.87
2023-04-07T19:09:55.062Z,20.30
2023-04-07T19:12:22.293Z,23.83
2023-04-07T19:14:48.940Z,20.77
2023-04-07T19:17:15.618Z,24.57
2023-04-07T19:19:42.159Z,22.33
2023-04-07T19:22:08.793Z,24.30
2023-04-07T19:24:36.182Z,19.43
2023-04-07T19:27:03.328Z,24.60
2023-04-07T19:29:29.988Z,21.67
2023-04-07T19:31:57.460Z,22.40
2023-04-07T19:34:24.094Z,25.27
2023-04-07T19:36:50.782Z,19.03
2023-04-07T19:39:17.371Z,22.53
2023-04-07T19:41:43.933Z,21.30
2023-04-07T19:44:10.586Z,21.77
2023-04-07T19:46:37.593Z,25.63
2023-04-07T19:49:04.141Z,21.47
2023-04-07T19:51:31.165Z,27.33
2023-04-07T19:53:57.785Z,28.63
2023-04-07T19:56:25.123Z,28.80
2023-04-07T19:58:51.887Z,27.50
2023-04-07T20:01:18.908Z,25.17
2023-04-07T20:03:46.341Z,25.23
2023-04-07T20:06:14.687Z,27.17
2023-04-07T20:08:41.998Z,25.70
2023-04-07T20:11:13.032Z,26.20
2023-04-07T20:13:41.288Z,24.90
2023-04-07T20:16:08.138Z,25.23
2023-04-07T20:18:34.771Z,22.43
2023-04-07T20:21:02.228Z,23.77
2023-04-07T20:23:28.876Z,23.27
2023-04-07T20:25:55.426Z,23.27
2023-04-07T20:28:22.538Z,21.43
2023-04-07T20:30:49.242Z,22.37
2023-04-07T20:33:16.306Z,21.50
2023-04-07T20:35:43.313Z,22.17
2023-04-07T20:38:09.961Z,21.60
2023-04-07T20:40:37.269Z,22.23
2023-04-07T20:43:07.075Z,23.63
2023-04-07T20:45:34.179Z,23.40
2023-04-07T20:48:01.565Z,23.30
2023-04-07T20:50:28.672Z,23.07
2023-04-07T20:52:55.246Z,21.93
2023-04-07T20:55:21.942Z,24.87
2023-04-07T20:57:50.272Z,33.40
2023-04-07T21:00:18.784Z,52.13
2023-04-07T21:02:46.840Z,29.27
2023-04-07T21:05:13.633Z,28.40
2023-04-07T21:07:40.518Z,29.73
2023-04-07T21:10:08.754Z,22.27
2023-04-07T21:12:36.602Z,24.37
2023-04-07T21:15:03.493Z,28.40
2023-04-07T21:17:30.096Z,67.97
2023-04-07T21:19:56.733Z,27.00
2023-04-07T21:22:23.359Z,23.43
2023-04-07T21:24:49.907Z,24.00
2023-04-07T21:27:16.649Z,22.67
2023-04-07T21:29:43.275Z,22.43
2023-04-07T21:32:10.510Z,22.83
2023-04-07T21:34:37.156Z,27.63
2023-04-07T21:37:03.784Z,24.33
2023-04-07T21:39:30.426Z,21.93
2023-04-07T21:41:57.450Z,25.57
2023-04-07T21:44:24.333Z,27.13
2023-04-07T21:46:51.331Z,27.20
2023-04-07T21:49:22.018Z,24.70
2023-04-07T21:51:49.095Z,23.93
2023-04-07T21:54:15.774Z,24.50
2023-04-07T21:56:42.404Z,22.13
2023-04-07T21:59:09.009Z,22.23
2023-04-07T22:01:35.648Z,22.47
2023-04-07T22:04:02.441Z,22.27
2023-04-07T22:06:29.098Z,19.37
2023-04-07T22:09:01.891Z,22.40
2023-04-07T22:11:29.463Z,21.17
2023-04-07T22:13:56.207Z,20.90
2023-04-07T22:16:22.962Z,20.67
2023-04-07T22:18:50.102Z,22.70
2023-04-07T22:21:17.101Z,25.83
2023-04-07T22:23:44.352Z,23.93
2023-04-07T22:26:11.201Z,24.60
2023-04-07T22:28:37.821Z,25.07
2023-04-07T22:31:04.658Z,24.37
2023-04-07T22:33:31.472Z,24.00
2023-04-07T22:35:58.063Z,22.13
2023-04-07T22:38:24.775Z,20.53
2023-04-07T22:40:51.384Z,22.20
2023-04-07T22:43:18.031Z,24.57
2023-04-07T22:45:44.631Z,23.33
2023-04-07T22:48:11.322Z,23.50
2023-04-07T22:50:38.022Z,24.70
2023-04-07T22:53:04.717Z,24.33
2023-04-07T22:55:31.275Z,22.00
2023-04-07T22:57:57.896Z,25.17
2023-04-07T23:00:24.589Z,22.93
2023-04-07T23:02:51.569Z,22.73
2023-04-07T23:05:18.443Z,24.53
2023-04-07T23:07:44.989Z,25.37
2023-04-07T23:10:11.611Z,25.90
2023-04-07T23:12:38.232Z,26.10
2023-04-07T23:15:05.324Z,25.57
2023-04-07T23:17:32.280Z,24.53
2023-04-07T23:19:58.944Z,28.10
2023-04-07T23:22:25.691Z,25.60
2023-04-07T23:24:52.328Z,26.73
2023-04-07T23:27:18.906Z,23.87
2023-04-07T23:29:45.593Z,27.97
2023-04-07T23:32:12.660Z,23.67
2023-04-07T23:34:40.076Z,25.13
2023-04-07T23:37:06.925Z,23.50
2023-04-07T23:39:34.419Z,22.27
2023-04-07T23:42:02.120Z,22.47
2023-04-07T23:44:28.710Z,20.83
2023-04-07T23:46:55.427Z,26.10
2023-04-07T23:49:22.297Z,24.33
2023-04-07T23:51:48.888Z,22.93
2023-04-07T23:54:15.465Z,23.60
2023-04-07T23:56:42.403Z,21.73
2023-04-07T23:59:09.004Z,21.37
